createdAt,value
2023-11-08T00:02:03.324Z,100113.00
2023-11-08T00:07:06.354Z,100106.00
2023-11-08T00:12:09.706Z,100100.60
2023-11-08T00:17:15.238Z,100101.20
2023-11-08T00:22:18.712Z,100103.00
2023-11-08T00:27:21.542Z,100103.00
2023-11-08T00:32:24.298Z,100098.40
2023-11-08T00:37:26.998Z,100099.40
2023-11-08T00:42:29.729Z,100097.20
2023-11-08T00:47:33.271Z,100102.00
2023-11-08T00:52:38.083Z,100091.80
2023-11-08T00:57:40.984Z,100088.20
2023-11-08T01:02:44.809Z,100088.40
2023-11-08T01:07:48.113Z,100086.80
2023-11-08T01:12:51.523Z,100082.20
2023-11-08T01:17:56.935Z,100077.00
2023-11-08T01:22:59.716Z,100072.60
2023-11-08T01:28:02.424Z,100075.20
2023-11-08T01:33:05.323Z,100069.60
2023-11-08T01:38:08.158Z,100069.80
2023-11-08T01:43:34.952Z,100066.00
2023-11-08T01:48:40.744Z,100066.80
2023-11-08T01:53:44.568Z,100072.20
2023-11-08T01:58:48.741Z,100070.20
2023-11-08T02:03:55.777Z,100065.40
2023-11-08T02:08:58.658Z,100057.00
2023-11-08T02:14:02.705Z,100065.80
2023-11-08T02:19:06.664Z,100064.00
2023-11-08T02:24:22.390Z,100060.20
2023-11-08T02:29:25.254Z,100057.40
2023-11-08T02:34:28.000Z,100057.60
2023-11-08T02:39:30.710Z,100053.20
2023-11-08T02:44:34.232Z,100060.80
2023-11-08T02:49:37.773Z,100061.20
2023-11-08T02:54:40.661Z,100059.40
2023-11-08T02:59:43.542Z,100059.80
2023-11-08T03:04:46.404Z,100059.20
2023-11-08T03:09:49.461Z,100057.60
2023-11-08T03:14:52.985Z,100060.20
2023-11-08T03:19:56.368Z,100063.00
2023-11-08T03:24:59.065Z,100063.00
2023-11-08T03:30:02.020Z,100064.60
2023-11-08T03:35:06.526Z,100074.20
2023-11-08T03:40:13.489Z,100072.60
2023-11-08T03:45:16.732Z,100065.00
2023-11-08T03:50:19.665Z,100059.40
2023-11-08T03:55:22.407Z,100058.20
2023-11-08T04:00:26.937Z,100064.60
2023-11-08T04:05:31.859Z,100069.00
2023-11-08T04:10:35.162Z,100069.20
2023-11-08T04:15:38.444Z,100062.80
2023-11-08T04:20:43.972Z,100068.60
2023-11-08T04:25:50.689Z,100063.80
2023-11-08T04:30:53.503Z,100065.20
2023-11-08T04:35:56.472Z,100062.60
2023-11-08T04:40:59.127Z,100065.40
2023-11-08T04:46:01.866Z,100067.00
2023-11-08T04:51:05.480Z,100067.00
2023-11-08T04:56:08.183Z,100062.40
2023-11-08T05:01:10.966Z,100067.60
2023-11-08T05:06:13.830Z,100069.40
2023-11-08T05:11:16.497Z,100060.80
2023-11-08T05:16:23.118Z,100067.00
2023-11-08T05:21:27.843Z,100062.80
2023-11-08T05:26:30.742Z,100059.60
2023-11-08T05:31:35.292Z,100060.80
2023-11-08T05:36:38.499Z,100060.20
2023-11-08T05:41:41.356Z,100061.20
2023-11-08T05:46:44.221Z,100065.20
2023-11-08T05:51:47.099Z,100065.60
2023-11-08T05:56:49.892Z,100067.20
2023-11-08T06:01:52.764Z,100076.20
2023-11-08T06:06:56.290Z,100082.60
2023-11-08T06:11:59.112Z,100088.00
2023-11-08T06:17:02.933Z,100087.60
2023-11-08T06:22:05.660Z,100095.40
2023-11-08T06:27:08.726Z,100094.20
2023-11-08T06:32:11.514Z,100099.00
2023-11-08T06:37:15.021Z,100098.60
2023-11-08T06:42:17.817Z,100094.20
2023-11-08T06:47:20.482Z,100098.40
2023-11-08T06:52:23.163Z,100097.40
2023-11-08T06:57:25.880Z,100103.40
2023-11-08T07:02:29.781Z,100102.40
2023-11-08T07:07:34.559Z,100108.20
2023-11-08T07:12:37.368Z,100109.40
2023-11-08T07:17:40.352Z,100113.20
2023-11-08T07:22:45.985Z,100111.60
2023-11-08T07:27:48.841Z,100122.80
2023-11-08T07:32:53.664Z,100119.20
2023-11-08T07:37:56.641Z,100126.40
2023-11-08T07:42:59.784Z,100124.60
2023-11-08T07:48:04.473Z,100125.40
2023-11-08T07:53:07.269Z,100120.40
2023-11-08T07:58:09.997Z,100125.00
2023-11-08T08:03:15.722Z,100131.20
2023-11-08T08:08:18.877Z,100143.80
2023-11-08T08:13:30.897Z,100145.40
2023-11-08T08:18:37.636Z,100143.00
2023-11-08T08:23:44.540Z,100137.20
2023-11-08T08:28:52.591Z,100133.60
2023-11-08T08:33:58.279Z,100140.20
2023-11-08T08:39:01.183Z,100138.00
2023-11-08T08:44:06.648Z,100146.60
2023-11-08T08:49:09.370Z,100146.80
2023-11-08T08:54:12.246Z,100151.00
2023-11-08T08:59:15.011Z,100147.20
2023-11-08T09:04:17.937Z,100154.60
2023-11-08T09:09:20.816Z,100154.40
2023-11-08T09:14:23.922Z,100157.80
2023-11-08T09:19:27.960Z,100152.00
2023-11-08T09:24:30.778Z,100151.20
2023-11-08T09:29:37.495Z,100153.80
2023-11-08T09:34:40.525Z,100154.20
2023-11-08T09:39:47.818Z,100159.80
2023-11-08T09:44:51.032Z,100159.00
2023-11-08T09:49:56.900Z,100158.20
2023-11-08T09:55:00.506Z,100150.20
2023-11-08T10:00:05.015Z,100154.80
2023-11-08T10:05:08.668Z,100151.40
2023-11-08T10:10:12.091Z,100158.00
2023-11-08T10:15:23.004Z,100149.40
2023-11-08T10:20:31.974Z,100145.80
2023-11-08T10:25:36.350Z,100141.20
2023-11-08T10:30:42.655Z,100139.20
2023-11-08T10:35:46.772Z,100131.40
2023-11-08T10:40:50.231Z,100131.80
2023-11-08T10:45:53.005Z,100130.80
2023-11-08T10:50:56.280Z,100131.20
2023-11-08T10:56:03.099Z,100130.60
2023-11-08T11:01:07.476Z,100127.00
2023-11-08T11:06:12.631Z,100117.00
2023-11-08T11:11:16.500Z,100122.00
2023-11-08T11:16:34.265Z,100116.60
2023-11-08T11:21:50.453Z,100110.00
2023-11-08T11:26:53.186Z,100103.40
2023-11-08T11:31:56.899Z,100105.40
2023-11-08T11:37:03.593Z,100107.60
2023-11-08T11:42:13.723Z,100121.20
2023-11-08T11:47:23.275Z,100111.80
2023-11-08T11:52:26.601Z,100116.60
2023-11-08T11:57:31.079Z,100117.40
2023-11-08T12:02:34.549Z,100115.00
2023-11-08T12:07:39.475Z,100114.60
2023-11-08T12:12:45.179Z,100118.00
2023-11-08T12:17:51.015Z,100124.20
2023-11-08T12:22:54.841Z,100125.60
2023-11-08T12:27:58.384Z,100121.20
2023-11-08T12:33:01.529Z,100120.60
2023-11-08T12:38:04.553Z,100122.00
2023-11-08T12:43:56.881Z,100117.60
2023-11-08T12:48:41.330Z,100111.60
2023-11-08T12:53:48.329Z,100108.40
2023-11-08T12:58:51.298Z,100111.20
2023-11-08T13:03:54.061Z,100110.60
2023-11-08T13:08:56.995Z,100105.60
2023-11-08T13:14:00.028Z,100110.00
2023-11-08T13:19:04.998Z,100114.00
2023-11-08T13:24:08.557Z,100114.00
2023-11-08T13:29:11.764Z,100109.00
2023-11-08T13:34:14.757Z,100107.40
2023-11-08T13:39:17.546Z,100105.00
2023-11-08T13:44:20.422Z,100110.20
2023-11-08T13:49:23.813Z,100112.60
2023-11-08T13:54:26.686Z,100112.20
2023-11-08T13:59:29.368Z,100110.40
2023-11-08T14:04:32.166Z,100110.60
2023-11-08T14:09:36.685Z,100116.00
2023-11-08T14:14:39.463Z,100114.00
2023-11-08T14:19:42.302Z,100119.60
2023-11-08T14:24:45.509Z,100120.20
2023-11-08T14:29:52.582Z,100114.20
2023-11-08T14:36:30.934Z,100118.00
2023-11-08T14:43:23.982Z,100112.20
2023-11-08T14:48:42.653Z,100117.80
2023-11-08T15:01:20.575Z,100121.80
2023-11-08T15:06:25.826Z,100124.40
2023-11-08T15:11:28.819Z,100128.80
2023-11-08T15:16:31.683Z,100130.60
2023-11-08T15:21:34.447Z,100130.60
2023-11-08T15:26:37.666Z,100129.00
2023-11-08T15:31:40.450Z,100135.60
2023-11-08T15:36:43.278Z,100132.00
2023-11-08T15:41:47.521Z,100133.40
2023-11-08T15:46:50.352Z,100129.60
2023-11-08T15:51:53.333Z,100131.20
2023-11-08T15:56:56.325Z,100130.80
2023-11-08T16:02:00.309Z,100130.00
2023-11-08T16:07:03.859Z,100131.20
2023-11-08T16:12:06.913Z,100130.20
2023-11-08T16:17:10.083Z,100135.20
2023-11-08T16:22:14.768Z,100141.20
2023-11-08T16:27:17.705Z,100148.20
2023-11-08T16:32:35.494Z,100148.80
2023-11-08T16:37:44.108Z,100156.80
2023-11-08T16:42:47.051Z,100160.20
2023-11-08T16:47:51.456Z,100158.00
2023-11-08T16:52:54.188Z,100153.80
2023-11-08T16:57:57.049Z,100154.00
2023-11-08T17:02:59.866Z,100154.60
2023-11-08T17:08:06.067Z,100165.80
2023-11-08T17:13:10.907Z,100170.80
2023-11-08T17:18:14.387Z,100179.20
2023-11-08T17:23:17.312Z,100175.80
2023-11-08T17:28:20.529Z,100176.60
2023-11-08T17:33:23.343Z,100182.60
2023-11-08T17:38:26.050Z,100182.00
2023-11-08T17:43:30.005Z,100187.40
2023-11-08T17:48:32.759Z,100193.40
2023-11-08T17:53:35.580Z,100193.60
2023-11-08T17:58:39.508Z,100195.20
2023-11-08T18:03:42.529Z,100193.80
2023-11-08T18:08:46.365Z,100192.20
2023-11-08T18:13:50.096Z,100197.60
2023-11-08T18:18:52.951Z,100196.80
2023-11-08T18:23:56.249Z,100200.20
2023-11-08T18:28:59.212Z,100202.80
2023-11-08T18:34:02.605Z,100206.00
2023-11-08T18:39:06.094Z,100212.80
2023-11-08T18:44:09.185Z,100210.40
2023-11-08T18:49:12.012Z,100212.00
2023-11-08T18:54:15.164Z,100213.20
2023-11-08T18:59:19.581Z,100222.80
2023-11-08T19:04:23.412Z,100223.80
2023-11-08T19:09:26.315Z,100233.00
2023-11-08T19:14:29.496Z,100235.40
2023-11-08T19:19:32.628Z,100236.60
2023-11-08T19:24:35.601Z,100242.00
2023-11-08T19:29:38.364Z,100241.00
2023-11-08T19:34:41.068Z,100242.00
2023-11-08T19:39:44.058Z,100243.40
2023-11-08T19:44:48.867Z,100243.20
2023-11-08T19:49:51.623Z,100248.40
2023-11-08T19:54:54.401Z,100248.20
2023-11-08T19:59:57.228Z,100242.80
2023-11-08T20:05:00.316Z,100247.80
2023-11-08T20:10:04.426Z,100250.40
2023-11-08T20:15:08.306Z,100255.20
2023-11-08T20:20:12.677Z,100249.00
2023-11-08T20:25:15.663Z,100253.40
2023-11-08T20:30:18.629Z,100258.80
2023-11-08T20:35:21.619Z,100256.80
2023-11-08T20:40:24.429Z,100261.60
2023-11-08T20:45:27.229Z,100258.40
2023-11-08T20:50:30.007Z,100259.20
2023-11-08T20:55:34.069Z,100256.40
2023-11-08T21:00:37.253Z,100253.20
2023-11-08T21:05:40.831Z,100256.00
2023-11-08T21:10:43.866Z,100255.80
2023-11-08T21:15:49.140Z,100245.80
2023-11-08T21:20:51.993Z,100251.80
2023-11-08T21:25:54.867Z,100250.60
2023-11-08T21:30:57.723Z,100256.00
2023-11-08T21:36:04.196Z,100256.20
2023-11-08T21:41:07.100Z,100257.20
2023-11-08T21:46:10.236Z,100262.00
2023-11-08T21:51:13.474Z,100260.40
2023-11-08T21:56:18.486Z,100265.60
2023-11-08T22:01:25.419Z,100267.00
2023-11-08T22:06:28.282Z,100261.60
2023-11-08T22:11:31.077Z,100263.00
2023-11-08T22:16:33.932Z,100262.80
2023-11-08T22:21:43.554Z,100260.40
2023-11-08T22:26:46.470Z,100258.80
2023-11-08T22:31:49.332Z,100260.60
2023-11-08T22:36:52.268Z,100266.80
2023-11-08T22:41:55.006Z,100267.60
2023-11-08T22:46:57.688Z,100272.40
2023-11-08T22:52:00.510Z,100279.20
2023-11-08T22:57:03.695Z,100274.00
2023-11-08T23:02:06.705Z,100270.60
2023-11-08T23:07:10.200Z,100262.20
2023-11-08T23:12:12.947Z,100268.20
2023-11-08T23:17:16.216Z,100270.80
2023-11-08T23:22:19.457Z,100276.20
2023-11-08T23:27:22.396Z,100267.60
2023-11-08T23:32:26.763Z,100274.40
2023-11-08T23:37:29.801Z,100277.40
2023-11-08T23:42:32.543Z,100269.40
2023-11-08T23:47:35.560Z,100265.80
2023-11-08T23:52:38.873Z,100266.60
2023-11-08T23:57:41.812Z,100260.80
